Pinesdale, Montana
Current Conditions -  °F | °C
As of 6:53 PM on Wednesday 22 Oct 2014 (Local Time) from KMSO Reporting Station
Clear Clear  
Wind Chill: 56°   Ceiling: Unl
Heat Index: 56°   Visibility: 10mi
Dew Point: 39°   Wind: 5mph
Humidity: 53%   Direction: 70°ENE
Pressure: 29.93"   Gusts: NA
Location:  46.33°N, 114.22°W
Report Text: KMSO 230053Z 07004KT 10SM CLR 13/04 A2993 RMK AO2 SLP143 T01330039
Loading
Personal Weather Stations






























Interactive Weather Map
Tropical Storm Tracking
New forecast layout! Learn more

10-Day Weather Forecast

Advertisements
Track Severe Weather on mobile